Terminal Aerodrome Forecast
Issued by NWS

Home | Current Version | Previous Version | Text Only | Print | Product List | Glossary Off
Versions: 1 2 3 4 5 6 7 8 9 10 11 12 13 14 15 16 17 18 19

727
FTUS43 KICT 132339
TAFSLN
TAF
KSLN 132339Z 1400/1424 13005KT P6SM BKN090
     FM140600 16007KT P6SM OVC060
      TEMPO 1406/1410 -SN
     FM141500 20008KT P6SM SCT090
     FM141700 26009KT P6SM SCT250=

USA.gov is the U.S. government's official web portal to all federal, state and local government web resources and services.